UAL870 YSSY-KLAX
Flight info
| Callsign | UAL870 |
|---|---|
| Flight time | N/A |
| Altitude | 31000 |
| Route | NOBAR A579 JORDY DCT 3005S16031E 2903S16300E 2848S16336E 2605S16903E 2513S17038E 2218S17517E 1942S17855E/N0498F330 1809S17904W 1547S17547W 1510S17457W 1258S17145W 1153S17010W 0937S16649W 0714S16332W 0500S16053W 0451S16042W 0317S15857W 0035N15510W/N0490F350 0152N15401W 0524N15102W 0907N14758W 1324N14404W 1613N14118W 1819N13904W/N0482F370 2207N13421W 2410N13141W 2715N12820W DCT FICKY GOATZ2 |
| Aircraft | B77W/H-SDE1E2E3FGHIJ2J3J4J5M1RWXY/LB1D1 |
Departure
| Time | 2026-05-07 05:13 |
|---|---|
| Airport | Sydney Kingsford Smith International Airport (YSSY) |
Arrival
| Time | N/A |
|---|---|
| Airport | Los Angeles International Airport (KLAX) |
| Time | Latitude | Longitude | Altitude | Speed | Heading |
|---|---|---|---|---|---|
| 2026-05-07 04:39 | -33.93833 | 151.16832 | 26 ft | 0 kts | 70° |
| 2026-05-07 05:01 | -33.93836 | 151.16823 | 26 ft | 3 kts | 70° |
| 2026-05-07 05:02 | -33.93842 | 151.16802 | 31 ft | 3 kts | 70° |
| 2026-05-07 05:02 | -33.93848 | 151.16779 | 31 ft | 3 kts | 94° |
| 2026-05-07 05:02 | -33.93842 | 151.16756 | 31 ft | 3 kts | 131° |
| 2026-05-07 05:02 | -33.93831 | 151.16744 | 31 ft | 0 kts | 159° |
| 2026-05-07 05:04 | -33.93832 | 151.16745 | 31 ft | 0 kts | 159° |
| 2026-05-07 05:05 | -33.93834 | 151.16746 | 31 ft | 0 kts | 158° |
| 2026-05-07 05:05 | -33.93835 | 151.16747 | 31 ft | 0 kts | 158° |
| 2026-05-07 05:06 | -33.93840 | 151.16749 | 31 ft | 3 kts | 157° |
| 2026-05-07 05:07 | -33.93884 | 151.16766 | 28 ft | 14 kts | 165° |
| 2026-05-07 05:07 | -33.93985 | 151.16793 | 29 ft | 15 kts | 167° |
| 2026-05-07 05:08 | -33.94023 | 151.16808 | 28 ft | 2 kts | 159° |
| 2026-05-07 05:08 | -33.94031 | 151.16814 | 28 ft | 6 kts | 143° |
| 2026-05-07 05:08 | -33.94042 | 151.16926 | 30 ft | 22 kts | 76° |
| 2026-05-07 05:08 | -33.93995 | 151.17120 | 26 ft | 25 kts | 74° |
| 2026-05-07 05:09 | -33.93865 | 151.17196 | 20 ft | 25 kts | 351° |
| 2026-05-07 05:09 | -33.93693 | 151.17152 | 27 ft | 25 kts | 348° |
| 2026-05-07 05:09 | -33.93521 | 151.17107 | 29 ft | 25 kts | 348° |
| 2026-05-07 05:09 | -33.93351 | 151.17056 | 28 ft | 25 kts | 337° |
| 2026-05-07 05:10 | -33.93214 | 151.16953 | 28 ft | 25 kts | 339° |
| 2026-05-07 05:10 | -33.93043 | 151.16913 | 28 ft | 25 kts | 4° |
| 2026-05-07 05:10 | -33.92978 | 151.16989 | 28 ft | 13 kts | 75° |
| 2026-05-07 05:10 | -33.92975 | 151.17006 | 29 ft | 0 kts | 76° |
| 2026-05-07 05:11 | -33.92965 | 151.17062 | 28 ft | 18 kts | 81° |
| 2026-05-07 05:11 | -33.93064 | 151.17191 | 27 ft | 21 kts | 164° |
| 2026-05-07 05:11 | -33.93073 | 151.17193 | 27 ft | 0 kts | 167° |
| 2026-05-07 05:12 | -33.93091 | 151.17198 | 29 ft | 20 kts | 167° |
| 2026-05-07 05:13 | -33.93507 | 151.17303 | 23 ft | 102 kts | 168° |
| 2026-05-07 05:13 | -33.94455 | 151.17543 | 29 ft | 175 kts | 169° |
| 2026-05-07 05:13 | -33.95759 | 151.17892 | 236 ft | 206 kts | 174° |
| 2026-05-07 05:13 | -33.97172 | 151.18289 | 869 ft | 215 kts | 175° |
| 2026-05-07 05:14 | -33.98624 | 151.18595 | 1984 ft | 212 kts | 181° |
| 2026-05-07 05:14 | -34.00094 | 151.19056 | 2657 ft | 232 kts | 158° |
| 2026-05-07 05:14 | -34.01282 | 151.20420 | 3113 ft | 250 kts | 127° |
| 2026-05-07 05:14 | -34.01809 | 151.22414 | 3450 ft | 263 kts | 97° |
| 2026-05-07 05:15 | -34.01841 | 151.24606 | 3823 ft | 267 kts | 93° |
| 2026-05-07 05:15 | -34.01829 | 151.26803 | 4300 ft | 267 kts | 93° |
| 2026-05-07 05:15 | -34.01803 | 151.29092 | 4694 ft | 275 kts | 93° |
| 2026-05-07 05:15 | -34.01766 | 151.31440 | 5080 ft | 283 kts | 91° |
| 2026-05-07 05:16 | -34.01339 | 151.33742 | 5466 ft | 293 kts | 65° |
| 2026-05-07 05:16 | -34.00105 | 151.35667 | 5870 ft | 296 kts | 35° |
| 2026-05-07 05:16 | -33.98361 | 151.36912 | 6341 ft | 291 kts | 27° |
| 2026-05-07 05:16 | -33.96897 | 151.38618 | 6564 ft | 302 kts | 62° |
| 2026-05-07 05:17 | -33.96070 | 151.40927 | 7022 ft | 300 kts | 69° |
| 2026-05-07 05:17 | -33.95225 | 151.43213 | 7393 ft | 308 kts | 64° |
| 2026-05-07 05:17 | -33.94208 | 151.45544 | 7670 ft | 320 kts | 61° |
| 2026-05-07 05:17 | -33.93068 | 151.47890 | 8134 ft | 326 kts | 59° |
| 2026-05-07 05:18 | -33.91883 | 151.50176 | 8667 ft | 330 kts | 58° |
| 2026-05-07 05:18 | -33.90702 | 151.52367 | 9151 ft | 333 kts | 57° |
| 2026-05-07 05:18 | -33.89422 | 151.54696 | 9773 ft | 335 kts | 56° |
| 2026-05-07 05:18 | -33.88122 | 151.57035 | 10267 ft | 339 kts | 56° |
| 2026-05-07 05:19 | -33.86788 | 151.59420 | 10425 ft | 357 kts | 56° |
| 2026-05-07 05:19 | -33.85359 | 151.61969 | 10588 ft | 374 kts | 56° |
| 2026-05-07 05:19 | -33.83868 | 151.64624 | 10786 ft | 391 kts | 54° |
| 2026-05-07 05:19 | -33.82318 | 151.67383 | 11087 ft | 404 kts | 54° |
| 2026-05-07 05:20 | -33.80737 | 151.70197 | 11655 ft | 409 kts | 54° |
| 2026-05-07 05:20 | -33.79197 | 151.72934 | 12327 ft | 409 kts | 54° |
| 2026-05-07 05:20 | -33.77697 | 151.75868 | 12955 ft | 415 kts | 60° |
| 2026-05-07 05:20 | -33.76328 | 151.78933 | 13538 ft | 420 kts | 60° |
| 2026-05-07 05:21 | -33.74935 | 151.82042 | 14103 ft | 424 kts | 59° |
| 2026-05-07 05:21 | -33.72097 | 151.88322 | 15273 ft | 429 kts | 58° |
| 2026-05-07 05:21 | -33.70660 | 151.91485 | 15824 ft | 433 kts | 57° |
| 2026-05-07 05:22 | -33.69206 | 151.94680 | 16316 ft | 438 kts | 55° |
| 2026-05-07 05:22 | -33.67762 | 151.97850 | 16909 ft | 440 kts | 54° |
| 2026-05-07 05:22 | -33.66281 | 152.01095 | 17477 ft | 443 kts | 53° |
| 2026-05-07 05:22 | -33.64789 | 152.04356 | 18020 ft | 447 kts | 52° |
| 2026-05-07 05:23 | -33.63277 | 152.07647 | 18430 ft | 453 kts | 51° |
| 2026-05-07 05:23 | -33.61750 | 152.10966 | 18831 ft | 457 kts | 51° |
| 2026-05-07 05:23 | -33.60206 | 152.14323 | 19323 ft | 460 kts | 51° |
| 2026-05-07 05:23 | -33.58656 | 152.17695 | 19815 ft | 461 kts | 51° |
| 2026-05-07 05:24 | -33.57104 | 152.21072 | 20301 ft | 464 kts | 51° |
| 2026-05-07 05:24 | -33.55534 | 152.24484 | 20751 ft | 467 kts | 50° |
| 2026-05-07 05:24 | -33.53961 | 152.27897 | 21187 ft | 471 kts | 50° |
| 2026-05-07 05:24 | -33.52367 | 152.31351 | 21633 ft | 473 kts | 50° |
| 2026-05-07 05:25 | -33.50768 | 152.34816 | 22073 ft | 476 kts | 50° |
| 2026-05-07 05:25 | -33.49160 | 152.38295 | 22504 ft | 479 kts | 50° |
| 2026-05-07 05:25 | -33.47537 | 152.41804 | 22801 ft | 483 kts | 50° |
| 2026-05-07 05:25 | -33.45932 | 152.45268 | 23200 ft | 486 kts | 49° |
| 2026-05-07 05:26 | -33.44281 | 152.48832 | 23614 ft | 489 kts | 49° |
| 2026-05-07 05:26 | -33.42648 | 152.52354 | 23970 ft | 491 kts | 50° |
| 2026-05-07 05:26 | -33.41002 | 152.55905 | 24406 ft | 490 kts | 50° |
| 2026-05-07 05:26 | -33.39334 | 152.59504 | 24844 ft | 490 kts | 49° |
| 2026-05-07 05:27 | -33.37665 | 152.63090 | 25089 ft | 495 kts | 49° |
| 2026-05-07 05:27 | -33.35974 | 152.66712 | 25321 ft | 500 kts | 50° |
| 2026-05-07 05:27 | -33.34272 | 152.70357 | 25624 ft | 503 kts | 50° |
| 2026-05-07 05:27 | -33.32565 | 152.74014 | 25867 ft | 505 kts | 50° |
| 2026-05-07 05:28 | -33.30840 | 152.77703 | 26054 ft | 511 kts | 50° |
| 2026-05-07 05:28 | -33.29097 | 152.81427 | 26294 ft | 514 kts | 50° |
| 2026-05-07 05:28 | -33.27349 | 152.85166 | 26657 ft | 514 kts | 50° |
| 2026-05-07 05:28 | -33.25610 | 152.88889 | 27092 ft | 514 kts | 50° |
| 2026-05-07 05:29 | -33.23858 | 152.92629 | 27341 ft | 517 kts | 50° |
| 2026-05-07 05:29 | -33.22689 | 152.95117 | 27462 ft | 520 kts | 50° |
| 2026-05-07 05:29 | -33.20909 | 152.98898 | 27679 ft | 524 kts | 50° |
| 2026-05-07 05:29 | -33.19122 | 153.02695 | 27929 ft | 526 kts | 50° |
| 2026-05-07 05:30 | -33.16738 | 153.07758 | 28215 ft | 529 kts | 50° |
| 2026-05-07 05:30 | -33.15517 | 153.10347 | 28348 ft | 531 kts | 50° |
| 2026-05-07 05:30 | -33.13699 | 153.14199 | 28506 ft | 535 kts | 50° |
| 2026-05-07 05:30 | -33.11871 | 153.18070 | 28799 ft | 535 kts | 50° |
| 2026-05-07 05:31 | -33.10046 | 153.21935 | 29074 ft | 536 kts | 50° |
| 2026-05-07 05:31 | -33.08210 | 153.25816 | 29331 ft | 537 kts | 50° |
| 2026-05-07 05:31 | -33.06395 | 153.29648 | 29599 ft | 537 kts | 50° |
| 2026-05-07 05:31 | -33.04559 | 153.33522 | 29902 ft | 537 kts | 49° |
| 2026-05-07 05:32 | -33.02714 | 153.37411 | 30183 ft | 536 kts | 49° |
| 2026-05-07 05:32 | -33.00878 | 153.41277 | 30430 ft | 536 kts | 49° |
| 2026-05-07 05:32 | -32.99039 | 153.45141 | 30672 ft | 536 kts | 49° |
| 2026-05-07 05:32 | -32.97200 | 153.49001 | 30886 ft | 537 kts | 49° |
| 2026-05-07 05:33 | -32.95350 | 153.52872 | 30913 ft | 539 kts | 49° |
| 2026-05-07 05:33 | -32.91645 | 153.60630 | 30953 ft | 536 kts | 49° |
| 2026-05-07 05:34 | -32.87970 | 153.68319 | 30945 ft | 533 kts | 49° |
| 2026-05-07 05:34 | -32.84299 | 153.75970 | 30885 ft | 532 kts | 49° |
| 2026-05-07 05:35 | -32.80628 | 153.83601 | 30951 ft | 531 kts | 49° |
| 2026-05-07 05:35 | -32.76944 | 153.91240 | 30949 ft | 534 kts | 49° |
| 2026-05-07 05:36 | -32.73242 | 153.98904 | 30949 ft | 536 kts | 49° |
| 2026-05-07 05:36 | -32.69521 | 154.06595 | 30924 ft | 537 kts | 49° |
| 2026-05-07 05:37 | -32.65808 | 154.14265 | 30945 ft | 535 kts | 50° |
| 2026-05-07 05:37 | -32.62119 | 154.21863 | 30938 ft | 533 kts | 50° |
| 2026-05-07 05:38 | -32.58414 | 154.29475 | 30939 ft | 532 kts | 49° |
| 2026-05-07 05:38 | -32.54713 | 154.37060 | 30917 ft | 530 kts | 50° |
| 2026-05-07 05:39 | -32.51027 | 154.44602 | 30902 ft | 528 kts | 50° |
| 2026-05-07 05:39 | -32.47351 | 154.52108 | 30938 ft | 526 kts | 50° |
| 2026-05-07 05:40 | -32.43744 | 154.59457 | 30949 ft | 526 kts | 50° |
| 2026-05-07 05:40 | -32.40087 | 154.66899 | 30942 ft | 527 kts | 50° |
| 2026-05-07 05:41 | -32.36859 | 154.74786 | 30943 ft | 537 kts | 58° |
| 2026-05-07 05:41 | -32.33945 | 154.82930 | 30918 ft | 537 kts | 58° |
| 2026-05-07 05:42 | -32.31023 | 154.91054 | 30936 ft | 537 kts | 58° |
| 2026-05-07 05:42 | -32.28060 | 154.99170 | 30919 ft | 536 kts | 58° |
| 2026-05-07 05:43 | -32.25107 | 155.07191 | 30939 ft | 535 kts | 58° |
| 2026-05-07 05:43 | -32.22139 | 155.15235 | 30943 ft | 534 kts | 58° |
| 2026-05-07 05:44 | -32.19172 | 155.23259 | 30917 ft | 533 kts | 58° |
| 2026-05-07 05:44 | -32.16207 | 155.31266 | 30933 ft | 532 kts | 58° |
| 2026-05-07 05:45 | -32.13233 | 155.39274 | 30937 ft | 532 kts | 58° |
| 2026-05-07 05:45 | -32.10267 | 155.47244 | 30938 ft | 532 kts | 58° |
| 2026-05-07 05:46 | -32.07300 | 155.55195 | 30940 ft | 533 kts | 58° |
| 2026-05-07 05:46 | -32.04363 | 155.63051 | 30916 ft | 534 kts | 58° |
| 2026-05-07 05:47 | -32.01368 | 155.71047 | 30927 ft | 532 kts | 58° |
| 2026-05-07 05:47 | -31.98396 | 155.78963 | 30930 ft | 532 kts | 58° |
| 2026-05-07 05:48 | -31.95391 | 155.86943 | 30930 ft | 532 kts | 58° |
| 2026-05-07 05:48 | -31.92387 | 155.94905 | 30924 ft | 532 kts | 58° |
| 2026-05-07 05:49 | -31.89380 | 156.02857 | 30931 ft | 532 kts | 58° |
| 2026-05-07 05:49 | -31.86372 | 156.10792 | 30896 ft | 531 kts | 58° |
| 2026-05-07 05:50 | -31.83357 | 156.18728 | 30922 ft | 531 kts | 58° |
| 2026-05-07 05:50 | -31.80349 | 156.26626 | 30916 ft | 531 kts | 58° |
| 2026-05-07 05:51 | -31.77321 | 156.34556 | 30931 ft | 532 kts | 58° |
| 2026-05-07 05:51 | -31.74284 | 156.42496 | 30924 ft | 532 kts | 58° |
| 2026-05-07 05:52 | -31.71244 | 156.50424 | 30923 ft | 533 kts | 58° |
| 2026-05-07 05:52 | -31.68219 | 156.58297 | 30916 ft | 533 kts | 58° |
| 2026-05-07 05:53 | -31.65172 | 156.66209 | 30923 ft | 533 kts | 58° |
| 2026-05-07 05:53 | -31.62109 | 156.74144 | 30929 ft | 534 kts | 58° |
| 2026-05-07 05:54 | -31.59042 | 156.82072 | 30923 ft | 534 kts | 58° |
| 2026-05-07 05:54 | -31.55968 | 156.90001 | 30890 ft | 534 kts | 58° |
| 2026-05-07 05:55 | -31.52899 | 156.97898 | 30903 ft | 533 kts | 58° |
| 2026-05-07 05:55 | -31.49811 | 157.05825 | 30921 ft | 535 kts | 57° |
| 2026-05-07 05:56 | -31.46708 | 157.13767 | 30927 ft | 538 kts | 57° |
| 2026-05-07 05:56 | -31.43590 | 157.21733 | 30920 ft | 542 kts | 57° |
| 2026-05-07 05:57 | -31.40437 | 157.29774 | 30920 ft | 543 kts | 57° |
| 2026-05-07 05:57 | -31.37285 | 157.37802 | 30920 ft | 543 kts | 57° |
| 2026-05-07 05:58 | -31.34146 | 157.45778 | 30921 ft | 541 kts | 57° |
| 2026-05-07 05:58 | -31.31000 | 157.53749 | 30924 ft | 539 kts | 57° |
| 2026-05-07 05:59 | -31.27859 | 157.61688 | 30929 ft | 538 kts | 57° |
| 2026-05-07 05:59 | -31.24713 | 157.69618 | 30925 ft | 538 kts | 57° |
| 2026-05-07 06:00 | -31.21560 | 157.77548 | 30927 ft | 538 kts | 57° |
| 2026-05-07 06:00 | -31.18454 | 157.85343 | 30934 ft | 539 kts | 57° |
| 2026-05-07 06:01 | -31.15273 | 157.93309 | 30927 ft | 543 kts | 56° |
| 2026-05-07 06:01 | -31.12058 | 158.01332 | 30940 ft | 550 kts | 56° |
| 2026-05-07 06:02 | -31.08812 | 158.09432 | 30935 ft | 552 kts | 56° |
| 2026-05-07 06:02 | -31.05580 | 158.17486 | 30935 ft | 552 kts | 56° |
| 2026-05-07 06:03 | -31.02323 | 158.25580 | 30924 ft | 551 kts | 56° |
| 2026-05-07 06:03 | -30.99061 | 158.33664 | 30905 ft | 550 kts | 55° |
| 2026-05-07 06:04 | -30.95800 | 158.41725 | 30934 ft | 550 kts | 55° |
| 2026-05-07 06:04 | -30.92525 | 158.49797 | 30944 ft | 551 kts | 55° |
| 2026-05-07 06:05 | -30.89241 | 158.57876 | 30942 ft | 552 kts | 55° |
| 2026-05-07 06:05 | -30.85947 | 158.65966 | 30944 ft | 553 kts | 55° |
| 2026-05-07 06:06 | -30.82670 | 158.73997 | 30940 ft | 553 kts | 55° |
| 2026-05-07 06:06 | -30.79363 | 158.82085 | 30941 ft | 553 kts | 54° |
| 2026-05-07 06:07 | -30.76062 | 158.90138 | 30949 ft | 553 kts | 54° |
| 2026-05-07 06:07 | -30.72746 | 158.98207 | 30948 ft | 553 kts | 54° |
| 2026-05-07 06:08 | -30.69429 | 159.06261 | 30952 ft | 553 kts | 54° |
| 2026-05-07 06:08 | -30.66106 | 159.14317 | 30952 ft | 553 kts | 54° |
| 2026-05-07 06:09 | -30.62777 | 159.22366 | 30903 ft | 552 kts | 54° |
| 2026-05-07 06:09 | -30.59479 | 159.30327 | 30950 ft | 551 kts | 55° |
| 2026-05-07 06:10 | -30.56154 | 159.38332 | 30953 ft | 550 kts | 55° |
| 2026-05-07 06:10 | -30.52827 | 159.46325 | 30957 ft | 550 kts | 54° |
| 2026-05-07 06:11 | -30.49496 | 159.54309 | 30954 ft | 550 kts | 54° |
| 2026-05-07 06:11 | -30.46179 | 159.62243 | 30958 ft | 550 kts | 54° |
| 2026-05-07 06:12 | -30.42835 | 159.70224 | 30930 ft | 550 kts | 54° |
| 2026-05-07 06:12 | -30.39488 | 159.78198 | 30953 ft | 551 kts | 54° |
| 2026-05-07 06:13 | -30.36690 | 159.84847 | 30973 ft | 552 kts | 54° |
| 2026-05-07 06:13 | -30.33317 | 159.92851 | 30964 ft | 554 kts | 54° |
| 2026-05-07 06:14 | -30.29939 | 160.00849 | 30968 ft | 554 kts | 54° |
| 2026-05-07 06:14 | -30.26548 | 160.08863 | 30971 ft | 554 kts | 54° |
| 2026-05-07 06:15 | -30.23160 | 160.16856 | 30949 ft | 553 kts | 54° |
| 2026-05-07 06:15 | -30.19776 | 160.24821 | 30960 ft | 550 kts | 55° |
| 2026-05-07 06:16 | -30.16405 | 160.32736 | 30961 ft | 548 kts | 55° |
| 2026-05-07 06:16 | -30.13042 | 160.40615 | 30965 ft | 546 kts | 55° |
| 2026-05-07 06:17 | -30.09679 | 160.48478 | 30972 ft | 545 kts | 55° |
| 2026-05-07 06:17 | -30.06355 | 160.56352 | 30970 ft | 547 kts | 56° |
| 2026-05-07 06:18 | -30.03142 | 160.64341 | 30972 ft | 548 kts | 57° |
| 2026-05-07 06:18 | -29.99966 | 160.72298 | 30972 ft | 550 kts | 57° |
| 2026-05-07 06:19 | -29.96742 | 160.80298 | 30984 ft | 551 kts | 57° |
| 2026-05-07 06:19 | -29.93486 | 160.88318 | 30974 ft | 552 kts | 57° |
| 2026-05-07 06:20 | -29.90228 | 160.96318 | 30978 ft | 551 kts | 57° |
| 2026-05-07 06:20 | -29.86968 | 161.04310 | 30977 ft | 551 kts | 57° |
| 2026-05-07 06:21 | -29.83712 | 161.12280 | 30962 ft | 548 kts | 58° |
| 2026-05-07 06:21 | -29.80469 | 161.20204 | 30970 ft | 546 kts | 58° |
| 2026-05-07 06:22 | -29.77234 | 161.28089 | 30979 ft | 543 kts | 57° |
| 2026-05-07 06:22 | -29.72392 | 161.39853 | 30985 ft | 541 kts | 57° |
| 2026-05-07 06:23 | -29.69164 | 161.47675 | 30986 ft | 541 kts | 57° |
| 2026-05-07 06:23 | -29.65948 | 161.55454 | 30987 ft | 542 kts | 57° |
| 2026-05-07 06:24 | -29.62761 | 161.63144 | 30981 ft | 543 kts | 58° |
| 2026-05-07 06:24 | -29.59499 | 161.71002 | 30991 ft | 545 kts | 58° |
| 2026-05-07 06:25 | -29.56225 | 161.78875 | 30994 ft | 546 kts | 58° |
| 2026-05-07 06:25 | -29.52959 | 161.86712 | 30990 ft | 548 kts | 58° |
| 2026-05-07 06:26 | -29.49663 | 161.94606 | 30990 ft | 548 kts | 58° |
| 2026-05-07 06:26 | -29.46384 | 162.02444 | 30992 ft | 548 kts | 58° |
| 2026-05-07 06:27 | -29.43084 | 162.10314 | 30990 ft | 547 kts | 58° |
| 2026-05-07 06:27 | -29.39784 | 162.18168 | 30993 ft | 546 kts | 58° |
| 2026-05-07 06:28 | -29.36484 | 162.26006 | 30991 ft | 545 kts | 58° |
| 2026-05-07 06:28 | -29.33200 | 162.33789 | 30993 ft | 545 kts | 58° |
| 2026-05-07 06:29 | -29.29893 | 162.41610 | 31001 ft | 544 kts | 58° |
| 2026-05-07 06:29 | -29.26607 | 162.49366 | 30998 ft | 545 kts | 58° |
| 2026-05-07 06:30 | -29.23294 | 162.57172 | 30975 ft | 545 kts | 58° |
| 2026-05-07 06:30 | -29.19968 | 162.64989 | 31001 ft | 547 kts | 58° |
| 2026-05-07 06:31 | -29.16623 | 162.72838 | 31010 ft | 550 kts | 58° |
| 2026-05-07 06:31 | -29.13277 | 162.80673 | 31013 ft | 552 kts | 58° |
| 2026-05-07 06:32 | -29.09937 | 162.88484 | 31006 ft | 553 kts | 58° |
| 2026-05-07 06:32 | -29.06549 | 162.96390 | 30995 ft | 552 kts | 58° |
| 2026-05-07 06:33 | -29.03189 | 163.04281 | 31002 ft | 551 kts | 59° |
| 2026-05-07 06:33 | -28.99918 | 163.12197 | 31002 ft | 550 kts | 59° |
| 2026-05-07 06:34 | -28.96682 | 163.20049 | 31017 ft | 549 kts | 59° |
| 2026-05-07 06:34 | -28.93405 | 163.27942 | 31013 ft | 550 kts | 59° |
| 2026-05-07 06:35 | -28.90119 | 163.35819 | 31025 ft | 550 kts | 59° |
| 2026-05-07 06:35 | -28.86828 | 163.43695 | 31009 ft | 550 kts | 59° |
| 2026-05-07 06:36 | -28.83536 | 163.51563 | 31005 ft | 549 kts | 59° |
| 2026-05-07 06:36 | -28.80286 | 163.59316 | 30997 ft | 549 kts | 59° |
| 2026-05-07 06:37 | -28.76845 | 163.67073 | 31020 ft | 547 kts | 57° |
| 2026-05-07 06:37 | -28.73208 | 163.74686 | 31025 ft | 547 kts | 56° |
| 2026-05-07 06:38 | -28.69551 | 163.82323 | 31024 ft | 548 kts | 56° |
| 2026-05-07 06:38 | -28.65934 | 163.89973 | 31022 ft | 549 kts | 57° |
| 2026-05-07 06:39 | -28.62327 | 163.97647 | 31025 ft | 549 kts | 57° |
| 2026-05-07 06:39 | -28.58745 | 164.05257 | 31018 ft | 549 kts | 57° |
| 2026-05-07 06:40 | -28.55125 | 164.12923 | 31024 ft | 550 kts | 57° |
| 2026-05-07 06:40 | -28.51486 | 164.20606 | 31033 ft | 552 kts | 57° |
| 2026-05-07 06:41 | -28.47835 | 164.28302 | 31035 ft | 553 kts | 57° |
| 2026-05-07 06:41 | -28.44173 | 164.36007 | 31032 ft | 555 kts | 57° |
| 2026-05-07 06:42 | -28.40507 | 164.43709 | 31036 ft | 553 kts | 57° |
| 2026-05-07 06:42 | -28.36876 | 164.51326 | 31025 ft | 550 kts | 57° |
| 2026-05-07 06:43 | -28.33273 | 164.58866 | 31025 ft | 550 kts | 57° |
| 2026-05-07 06:43 | -28.29707 | 164.66305 | 31038 ft | 558 kts | 57° |
| 2026-05-07 06:44 | -28.25986 | 164.74061 | 31052 ft | 557 kts | 57° |
| 2026-05-07 06:44 | -28.22596 | 164.81130 | 31031 ft | 548 kts | 57° |
| 2026-05-07 06:45 | -28.18891 | 164.88830 | 31047 ft | 549 kts | 57° |
| 2026-05-07 06:45 | -28.15234 | 164.96407 | 31044 ft | 550 kts | 57° |
| 2026-05-07 06:46 | -28.11725 | 165.03665 | 31023 ft | 552 kts | 57° |
| 2026-05-07 06:46 | -28.08228 | 165.10890 | 31060 ft | 556 kts | 57° |
| 2026-05-07 06:47 | -28.04518 | 165.18543 | 31058 ft | 558 kts | 57° |
| 2026-05-07 06:47 | -28.00770 | 165.26262 | 31052 ft | 560 kts | 57° |
| 2026-05-07 06:48 | -27.97027 | 165.33959 | 31046 ft | 559 kts | 57° |
| 2026-05-07 06:48 | -27.93273 | 165.41660 | 31048 ft | 557 kts | 57° |
| 2026-05-07 06:49 | -27.89623 | 165.49135 | 31047 ft | 556 kts | 57° |
| 2026-05-07 06:49 | -27.85934 | 165.56675 | 31054 ft | 555 kts | 58° |
| 2026-05-07 06:50 | -27.82185 | 165.64322 | 31059 ft | 557 kts | 58° |
| 2026-05-07 06:50 | -27.78420 | 165.71990 | 31067 ft | 559 kts | 58° |
| 2026-05-07 06:51 | -27.74636 | 165.79681 | 31064 ft | 560 kts | 58° |
| 2026-05-07 06:51 | -27.70857 | 165.87352 | 31054 ft | 557 kts | 58° |
| 2026-05-07 06:52 | -27.67155 | 165.94855 | 31056 ft | 553 kts | 58° |
| 2026-05-07 06:52 | -27.63419 | 166.02409 | 31044 ft | 550 kts | 58° |
| 2026-05-07 06:53 | -27.59691 | 166.09933 | 31061 ft | 549 kts | 58° |
| 2026-05-07 06:53 | -27.55972 | 166.17423 | 31078 ft | 551 kts | 58° |
| 2026-05-07 06:54 | -27.52228 | 166.24952 | 31065 ft | 551 kts | 58° |
| 2026-05-07 06:54 | -27.48562 | 166.32314 | 31070 ft | 552 kts | 58° |
| 2026-05-07 06:55 | -27.44811 | 166.39833 | 31068 ft | 551 kts | 58° |
| 2026-05-07 06:55 | -27.41097 | 166.47263 | 31065 ft | 551 kts | 58° |
| 2026-05-07 06:56 | -27.37332 | 166.54784 | 31073 ft | 551 kts | 58° |
| 2026-05-07 06:56 | -27.33659 | 166.62108 | 31063 ft | 550 kts | 58° |
| 2026-05-07 06:57 | -27.29893 | 166.69604 | 31075 ft | 550 kts | 58° |
| 2026-05-07 06:57 | -27.26130 | 166.77082 | 31074 ft | 550 kts | 58° |
| 2026-05-07 06:58 | -27.22427 | 166.84427 | 31074 ft | 550 kts | 58° |
| 2026-05-07 06:58 | -27.19299 | 166.90622 | 31072 ft | 550 kts | 58° |
| 2026-05-07 06:59 | -27.15062 | 166.98998 | 31069 ft | 550 kts | 58° |
| 2026-05-07 06:59 | -27.11888 | 167.05263 | 31076 ft | 550 kts | 58° |
| 2026-05-07 07:00 | -27.08093 | 167.12743 | 31073 ft | 551 kts | 58° |
| 2026-05-07 07:00 | -27.04323 | 167.20160 | 31076 ft | 551 kts | 58° |
| 2026-05-07 07:01 | -27.00603 | 167.27467 | 31063 ft | 552 kts | 58° |
| 2026-05-07 07:01 | -26.96790 | 167.34942 | 31070 ft | 552 kts | 58° |
| 2026-05-07 07:02 | -26.92970 | 167.42419 | 31067 ft | 553 kts | 58° |
| 2026-05-07 07:02 | -26.89177 | 167.49830 | 31054 ft | 553 kts | 58° |
| 2026-05-07 07:03 | -26.85354 | 167.57289 | 31071 ft | 553 kts | 58° |
| 2026-05-07 07:03 | -26.81530 | 167.64737 | 31084 ft | 552 kts | 58° |
| 2026-05-07 07:04 | -26.77707 | 167.72170 | 31063 ft | 550 kts | 58° |
| 2026-05-07 07:04 | -26.73923 | 167.79515 | 31068 ft | 547 kts | 58° |
| 2026-05-07 07:05 | -26.70314 | 167.86507 | 31072 ft | 546 kts | 58° |
| 2026-05-07 07:05 | -26.67365 | 167.92211 | 31072 ft | 545 kts | 58° |
| 2026-05-07 07:06 | -26.63569 | 167.99546 | 31062 ft | 545 kts | 58° |
| 2026-05-07 07:06 | -26.59782 | 168.06851 | 31076 ft | 547 kts | 58° |
| 2026-05-07 07:07 | -26.55956 | 168.14218 | 31078 ft | 549 kts | 58° |
| 2026-05-07 07:07 | -26.52141 | 168.21552 | 31078 ft | 551 kts | 58° |
| 2026-05-07 07:08 | -26.48289 | 168.28946 | 31075 ft | 552 kts | 58° |
| 2026-05-07 07:08 | -26.44421 | 168.36358 | 31075 ft | 553 kts | 58° |
| 2026-05-07 07:09 | -26.40562 | 168.43742 | 31074 ft | 553 kts | 58° |
| 2026-05-07 07:09 | -26.36699 | 168.51120 | 31069 ft | 552 kts | 58° |
| 2026-05-07 07:10 | -26.32880 | 168.58402 | 31072 ft | 551 kts | 58° |
| 2026-05-07 07:10 | -26.29003 | 168.65782 | 31074 ft | 551 kts | 58° |
| 2026-05-07 07:11 | -26.25172 | 168.73063 | 31077 ft | 551 kts | 59° |
| 2026-05-07 07:11 | -26.21328 | 168.80359 | 31077 ft | 551 kts | 59° |
| 2026-05-07 07:12 | -26.17446 | 168.87713 | 31077 ft | 550 kts | 59° |
| 2026-05-07 07:12 | -26.13631 | 168.94930 | 31063 ft | 550 kts | 59° |
| 2026-05-07 07:13 | -26.09730 | 169.02299 | 31074 ft | 551 kts | 58° |
| 2026-05-07 07:13 | -26.05822 | 169.09636 | 31079 ft | 551 kts | 58° |
| 2026-05-07 07:14 | -26.01880 | 169.16938 | 31086 ft | 551 kts | 58° |
| 2026-05-07 07:14 | -25.97924 | 169.24247 | 31082 ft | 552 kts | 58° |
| 2026-05-07 07:15 | -25.93990 | 169.31518 | 31086 ft | 552 kts | 58° |
| 2026-05-07 07:15 | -25.90025 | 169.38845 | 31083 ft | 552 kts | 58° |
| 2026-05-07 07:16 | -25.86148 | 169.45999 | 31065 ft | 552 kts | 58° |
| 2026-05-07 07:16 | -25.82184 | 169.53301 | 31075 ft | 552 kts | 58° |
| 2026-05-07 07:17 | -25.78210 | 169.60609 | 31085 ft | 553 kts | 58° |
| 2026-05-07 07:17 | -25.74229 | 169.67917 | 31082 ft | 553 kts | 58° |
| 2026-05-07 07:18 | -25.70240 | 169.75228 | 31082 ft | 554 kts | 58° |
| 2026-05-07 07:18 | -25.66380 | 169.82292 | 31090 ft | 554 kts | 58° |
| 2026-05-07 07:19 | -25.62407 | 169.89552 | 31080 ft | 554 kts | 58° |
| 2026-05-07 07:19 | -25.58411 | 169.96843 | 31065 ft | 554 kts | 58° |
| 2026-05-07 07:20 | -25.54409 | 170.04132 | 31089 ft | 554 kts | 58° |
| 2026-05-07 07:20 | -25.50405 | 170.11415 | 31075 ft | 554 kts | 58° |
| 2026-05-07 07:21 | -25.46460 | 170.18577 | 31073 ft | 554 kts | 58° |
| 2026-05-07 07:21 | -25.42944 | 170.24953 | 31074 ft | 554 kts | 58° |
| 2026-05-07 07:22 | -25.38959 | 170.32169 | 31084 ft | 555 kts | 58° |
| 2026-05-07 07:22 | -25.34933 | 170.39448 | 31077 ft | 555 kts | 58° |
| 2026-05-07 07:23 | -25.30898 | 170.46732 | 31074 ft | 555 kts | 58° |
| 2026-05-07 07:23 | -25.26912 | 170.53917 | 31086 ft | 555 kts | 58° |
| 2026-05-07 07:24 | -25.22892 | 170.61155 | 31081 ft | 555 kts | 58° |
| 2026-05-07 07:24 | -25.18855 | 170.68244 | 31082 ft | 555 kts | 57° |
| 2026-05-07 07:25 | -25.12407 | 170.78874 | 31083 ft | 555 kts | 56° |
| 2026-05-07 07:26 | -25.08133 | 170.85910 | 31066 ft | 555 kts | 56° |
| 2026-05-07 07:26 | -25.03879 | 170.92968 | 31063 ft | 555 kts | 56° |
| 2026-05-07 07:27 | -24.99739 | 170.99851 | 31082 ft | 555 kts | 56° |
| 2026-05-07 07:27 | -24.95940 | 171.06156 | 31075 ft | 555 kts | 56° |
| 2026-05-07 07:28 | -24.91653 | 171.13257 | 31074 ft | 555 kts | 56° |
| 2026-05-07 07:28 | -24.87388 | 171.20307 | 31073 ft | 556 kts | 56° |
| 2026-05-07 07:29 | -24.83092 | 171.27398 | 31078 ft | 556 kts | 56° |
| 2026-05-07 07:29 | -24.78832 | 171.34419 | 31074 ft | 556 kts | 56° |
| 2026-05-07 07:30 | -24.74562 | 171.41448 | 31073 ft | 556 kts | 56° |
| 2026-05-07 07:30 | -24.70400 | 171.48289 | 31077 ft | 556 kts | 56° |
| 2026-05-07 07:31 | -24.66087 | 171.55367 | 31074 ft | 557 kts | 56° |
| 2026-05-07 07:31 | -24.61775 | 171.62433 | 31073 ft | 557 kts | 56° |
| 2026-05-07 07:32 | -24.57455 | 171.69502 | 31069 ft | 557 kts | 56° |
| 2026-05-07 07:32 | -24.53135 | 171.76562 | 31080 ft | 557 kts | 56° |
| 2026-05-07 07:33 | -24.48805 | 171.83627 | 31067 ft | 557 kts | 56° |
| 2026-05-07 07:33 | -24.44464 | 171.90700 | 31064 ft | 558 kts | 56° |
| 2026-05-07 07:34 | -24.40296 | 171.97480 | 31074 ft | 557 kts | 56° |
| 2026-05-07 07:34 | -24.35957 | 172.04531 | 31073 ft | 558 kts | 56° |
| 2026-05-07 07:35 | -24.31876 | 172.11151 | 31080 ft | 558 kts | 56° |
| 2026-05-07 07:35 | -24.27587 | 172.18101 | 31071 ft | 558 kts | 56° |
| 2026-05-07 07:36 | -24.23244 | 172.25127 | 31061 ft | 558 kts | 56° |
| 2026-05-07 07:36 | -24.19164 | 172.31719 | 31048 ft | 557 kts | 56° |
| 2026-05-07 07:37 | -24.14809 | 172.38746 | 31073 ft | 558 kts | 56° |
| 2026-05-07 07:37 | -24.10829 | 172.45158 | 31069 ft | 558 kts | 56° |
| 2026-05-07 07:38 | -24.06441 | 172.52219 | 31070 ft | 559 kts | 56° |
| 2026-05-07 07:38 | -24.02092 | 172.59207 | 31065 ft | 559 kts | 56° |
| 2026-05-07 07:39 | -23.97705 | 172.66247 | 31067 ft | 559 kts | 56° |
| 2026-05-07 07:39 | -23.93465 | 172.73040 | 31065 ft | 559 kts | 56° |
| 2026-05-07 07:40 | -23.89873 | 172.78789 | 31047 ft | 559 kts | 56° |
| 2026-05-07 07:40 | -23.85648 | 172.85542 | 31070 ft | 559 kts | 56° |
| 2026-05-07 07:41 | -23.80595 | 172.93606 | 31063 ft | 560 kts | 56° |
| 2026-05-07 07:41 | -23.76935 | 172.99439 | 31064 ft | 560 kts | 56° |
| 2026-05-07 07:42 | -23.72535 | 173.06443 | 31062 ft | 560 kts | 56° |
| 2026-05-07 07:42 | -23.68202 | 173.13330 | 31060 ft | 560 kts | 56° |
| 2026-05-07 07:43 | -23.66022 | 173.16791 | 31072 ft | 561 kts | 56° |